Time;durP1;ratioP1;P1;durP2;ratioP2;P2;SDS_P1;SDS_P2;PMS_P1;PMS_P2;Temp;Humidity;BMP_temperature;BMP_pressure;BME280_temperature;BME280_humidity;BME280_pressure;Samples;Min_cycle;Max_cycle;Signal;HPM_P1;HPM_P2
2023/03/03 00:00:18;;;;;;;0.20;0.20;;;;;;;;;;5042073;28;20514;-66
2023/03/03 00:02:45;;;;;;;0.20;0.20;;;;;;;;;;5060477;28;20281;-66
2023/03/03 00:05:14;;;;;;;0.20;0.20;;;;;;;;;;5038154;28;20263;-66
2023/03/03 00:07:43;;;;;;;0.20;0.20;;;;;;;;;;5060317;28;20261;-65
2023/03/03 00:10:09;;;;;;;0.20;0.20;;;;;;;;;;5044945;28;20245;-65
2023/03/03 00:12:45;;;;;;;0.20;0.20;;;;;;;;;;5033706;28;20229;-65
2023/03/03 00:15:14;;;;;;;0.20;0.20;;;;;;;;;;5037943;28;20241;-65
2023/03/03 00:17:40;;;;;;;0.20;0.20;;;;;;;;;;5060049;28;20290;-65
2023/03/03 00:20:22;;;;;;;0.20;0.20;;;;;;;;;;5045112;28;20226;-65
2023/03/03 00:22:50;;;;;;;0.20;0.20;;;;;;;;;;5044471;28;20184;-65
2023/03/03 00:25:25;;;;;;;0.20;0.20;;;;;;;;;;5035555;28;20362;-65
2023/03/03 00:27:51;;;;;;;0.20;0.20;;;;;;;;;;5058410;28;20281;-65
2023/03/03 00:30:23;;;;;;;0.40;0.40;;;;;;;;;;5035777;28;20277;-65
2023/03/03 00:32:51;;;;;;;0.27;0.27;;;;;;;;;;5058378;28;20220;-65
2023/03/03 00:35:23;;;;;;;0.20;0.20;;;;;;;;;;5035248;28;20253;-66
2023/03/03 00:37:53;;;;;;;0.20;0.20;;;;;;;;;;5058629;28;20219;-65
2023/03/03 00:40:22;;;;;;;0.20;0.20;;;;;;;;;;5035852;28;20262;-65
2023/03/03 00:42:50;;;;;;;0.27;0.27;;;;;;;;;;5058231;28;20194;-65
2023/03/03 00:45:25;;;;;;;0.23;0.23;;;;;;;;;;5035192;28;20214;-66
2023/03/03 00:47:52;;;;;;;0.20;0.20;;;;;;;;;;5057776;28;20202;-65
2023/03/03 00:50:25;;;;;;;0.30;0.30;;;;;;;;;;5035404;28;20462;-65
2023/03/03 00:52:58;;;;;;;0.23;0.23;;;;;;;;;;5058088;28;20451;-65
2023/03/03 00:55:26;;;;;;;0.27;0.27;;;;;;;;;;5036257;28;20552;-65
2023/03/03 00:57:52;;;;;;;0.23;0.23;;;;;;;;;;5057888;28;20373;-65
2023/03/03 01:00:19;;;;;;;0.20;0.20;;;;;;;;;;5034882;28;20214;-65
2023/03/03 01:02:47;;;;;;;0.20;0.20;;;;;;;;;;5058725;28;20202;-65
2023/03/03 01:05:14;;;;;;;1.17;1.17;;;;;;;;;;5034370;28;20254;-66
2023/03/03 01:07:41;;;;;;;0.20;0.20;;;;;;;;;;5059171;28;20266;-65
2023/03/03 01:10:09;;;;;;;0.20;0.20;;;;;;;;;;5044061;28;20215;-65
2023/03/03 01:12:37;;;;;;;0.20;0.20;;;;;;;;;;5032679;28;20283;-65
2023/03/03 01:15:04;;;;;;;0.20;0.20;;;;;;;;;;5044064;28;20206;-65
2023/03/03 01:17:30;;;;;;;0.20;0.20;;;;;;;;;;5049109;28;20305;-65
2023/03/03 01:19:56;;;;;;;0.20;0.20;;;;;;;;;;5044107;28;20282;-65
2023/03/03 01:22:23;;;;;;;0.30;0.30;;;;;;;;;;5049160;28;20604;-65
2023/03/03 01:24:49;;;;;;;0.20;0.20;;;;;;;;;;5044049;28;20230;-65
2023/03/03 01:27:17;;;;;;;0.30;0.30;;;;;;;;;;5049008;28;20252;-65
2023/03/03 01:29:43;;;;;;;0.30;0.30;;;;;;;;;;5043780;28;20270;-65
2023/03/03 01:32:10;;;;;;;0.23;0.23;;;;;;;;;;5048267;28;20269;-65
2023/03/03 01:34:36;;;;;;;0.20;0.20;;;;;;;;;;5043776;28;20207;-65
2023/03/03 01:37:02;;;;;;;0.20;0.20;;;;;;;;;;5047886;28;20312;-65
2023/03/03 01:39:29;;;;;;;0.20;0.20;;;;;;;;;;5044816;28;20279;-65
2023/03/03 01:41:55;;;;;;;0.20;0.20;;;;;;;;;;5046744;28;20246;-65
2023/03/03 01:44:23;;;;;;;0.20;0.20;;;;;;;;;;5045641;28;20430;-65
2023/03/03 01:46:54;;;;;;;0.20;0.20;;;;;;;;;;5045950;28;20490;-65
2023/03/03 01:49:22;;;;;;;0.20;0.20;;;;;;;;;;5045526;28;20234;-65
2023/03/03 01:51:50;;;;;;;0.20;0.20;;;;;;;;;;5045801;28;20308;-65
2023/03/03 01:54:19;;;;;;;0.20;0.20;;;;;;;;;;5046013;28;20278;-65
2023/03/03 01:56:46;;;;;;;0.20;0.20;;;;;;;;;;5045569;28;20620;-65
2023/03/03 01:59:13;;;;;;;0.20;0.20;;;;;;;;;;5046655;28;20526;-65
2023/03/03 02:01:42;;;;;;;0.20;0.20;;;;;;;;;;5044669;28;20314;-65
2023/03/03 02:04:08;;;;;;;0.30;0.30;;;;;;;;;;5047252;28;20253;-65
2023/03/03 02:06:36;;;;;;;0.30;0.30;;;;;;;;;;5043952;28;20494;-65
2023/03/03 02:09:06;;;;;;;0.30;0.30;;;;;;;;;;5047569;28;20245;-65
2023/03/03 02:11:33;;;;;;;0.20;0.20;;;;;;;;;;5043722;28;20305;-65
2023/03/03 02:13:59;;;;;;;0.20;0.20;;;;;;;;;;5047841;28;20244;-65
2023/03/03 02:16:26;;;;;;;0.30;0.30;;;;;;;;;;5042707;28;20252;-65
2023/03/03 02:18:53;;;;;;;0.20;0.20;;;;;;;;;;5049252;28;20245;-66
2023/03/03 02:21:21;;;;;;;0.20;0.20;;;;;;;;;;5041787;28;20239;-65
2023/03/03 02:23:51;;;;;;;0.30;0.30;;;;;;;;;;5049819;28;20457;-65
2023/03/03 02:26:21;;;;;;;0.20;0.20;;;;;;;;;;5041729;28;20240;-66
2023/03/03 02:28:48;;;;;;;0.20;0.20;;;;;;;;;;5049439;28;20194;-65
2023/03/03 02:31:15;;;;;;;0.20;0.20;;;;;;;;;;5041320;28;20485;-65
2023/03/03 02:33:42;;;;;;;0.30;0.30;;;;;;;;;;5049974;28;20245;-65
2023/03/03 02:36:12;;;;;;;0.30;0.30;;;;;;;;;;5040481;28;20245;-65
2023/03/03 02:38:41;;;;;;;0.23;0.23;;;;;;;;;;5050744;28;20214;-65
2023/03/03 02:41:11;;;;;;;0.20;0.20;;;;;;;;;;5040343;28;20248;-65
2023/03/03 02:43:44;;;;;;;0.20;0.20;;;;;;;;;;5050542;28;20307;-65
2023/03/03 02:46:10;;;;;;;0.20;0.20;;;;;;;;;;5044023;28;20240;-65
2023/03/03 02:48:36;;;;;;;0.20;0.20;;;;;;;;;;5054247;28;20216;-65
2023/03/03 02:51:03;;;;;;;0.30;0.30;;;;;;;;;;5043320;28;20242;-65
2023/03/03 02:53:29;;;;;;;0.20;0.20;;;;;;;;;;5055322;28;20279;-65
2023/03/03 02:55:56;;;;;;;0.30;0.30;;;;;;;;;;5042263;28;20249;-65
2023/03/03 02:58:22;;;;;;;0.20;0.20;;;;;;;;;;5056288;28;20241;-65
2023/03/03 03:00:50;;;;;;;0.30;0.30;;;;;;;;;;5041292;28;20243;-65
2023/03/03 03:03:16;;;;;;;0.30;0.30;;;;;;;;;;5056802;28;20196;-66
2023/03/03 03:05:42;;;;;;;0.30;0.30;;;;;;;;;;5040443;28;20311;-66
2023/03/03 03:08:09;;;;;;;0.30;0.30;;;;;;;;;;5057470;28;20222;-66
2023/03/03 03:10:35;;;;;;;0.20;0.20;;;;;;;;;;5039398;28;20268;-64
2023/03/03 03:13:02;;;;;;;0.30;0.30;;;;;;;;;;5058519;28;20213;-64
2023/03/03 03:15:28;;;;;;;0.20;0.20;;;;;;;;;;5038470;28;20206;-64
2023/03/03 03:17:56;;;;;;;0.20;0.20;;;;;;;;;;5059095;28;20281;-64
2023/03/03 03:20:22;;;;;;;0.20;0.20;;;;;;;;;;5037491;28;20325;-64
2023/03/03 03:22:49;;;;;;;0.30;0.30;;;;;;;;;;5060164;28;20537;-64
2023/03/03 03:25:15;;;;;;;0.20;0.20;;;;;;;;;;5036596;28;20549;-65
2023/03/03 03:27:41;;;;;;;0.30;0.30;;;;;;;;;;5060649;28;20219;-64
2023/03/03 03:30:08;;;;;;;0.30;0.30;;;;;;;;;;5045678;28;20206;-64
2023/03/03 03:32:35;;;;;;;0.20;0.20;;;;;;;;;;5034387;28;20225;-64
2023/03/03 03:35:02;;;;;;;0.30;0.30;;;;;;;;;;5046034;28;20206;-64
2023/03/03 03:37:29;;;;;;;0.20;0.20;;;;;;;;;;5050992;28;20250;-64
2023/03/03 03:39:55;;;;;;;0.30;0.30;;;;;;;;;;5045769;28;20209;-64
2023/03/03 03:42:22;;;;;;;0.20;0.20;;;;;;;;;;5050997;28;20261;-65
2023/03/03 03:44:49;;;;;;;0.30;0.30;;;;;;;;;;5045685;28;20237;-64
2023/03/03 03:47:16;;;;;;;0.20;0.20;;;;;;;;;;5050753;28;20261;-64
2023/03/03 03:49:42;;;;;;;0.30;0.30;;;;;;;;;;5045825;28;20206;-64
2023/03/03 03:52:10;;;;;;;0.20;0.20;;;;;;;;;;5050410;28;20260;-65
2023/03/03 03:54:36;;;;;;;0.30;0.30;;;;;;;;;;5045282;28;20242;-66
2023/03/03 03:57:02;;;;;;;0.20;0.20;;;;;;;;;;5049328;28;20485;-66
2023/03/03 03:59:29;;;;;;;0.30;0.30;;;;;;;;;;5046188;28;20278;-65
2023/03/03 04:01:55;;;;;;;0.23;0.23;;;;;;;;;;5048417;28;20264;-65
2023/03/03 04:04:21;;;;;;;0.27;0.27;;;;;;;;;;5047171;28;20256;-65
2023/03/03 04:06:48;;;;;;;0.30;0.30;;;;;;;;;;5047505;28;20309;-65
2023/03/03 04:09:16;;;;;;;0.30;0.30;;;;;;;;;;5048093;28;20205;-65
2023/03/03 04:11:42;;;;;;;0.30;0.30;;;;;;;;;;5046640;28;20304;-65
2023/03/03 04:14:08;;;;;;;0.20;0.20;;;;;;;;;;5048810;28;20509;-65
2023/03/03 04:16:35;;;;;;;0.20;0.20;;;;;;;;;;5045749;28;20251;-65
2023/03/03 04:19:01;;;;;;;0.20;0.20;;;;;;;;;;5049549;28;20460;-65
2023/03/03 04:21:27;;;;;;;0.30;0.30;;;;;;;;;;5044674;28;20516;-65
2023/03/03 04:23:54;;;;;;;0.30;0.30;;;;;;;;;;5050323;28;20555;-65
2023/03/03 04:26:22;;;;;;;0.20;0.20;;;;;;;;;;5043721;28;20349;-65
2023/03/03 04:28:48;;;;;;;0.27;0.27;;;;;;;;;;5050974;28;20246;-65
2023/03/03 04:31:14;;;;;;;0.20;0.20;;;;;;;;;;5042984;28;20593;-65
2023/03/03 04:33:41;;;;;;;0.23;0.23;;;;;;;;;;5051768;28;20449;-65
2023/03/03 04:36:08;;;;;;;0.30;0.30;;;;;;;;;;5041961;28;20257;-65
2023/03/03 04:38:34;;;;;;;0.20;0.20;;;;;;;;;;5052761;28;20394;-65
2023/03/03 04:41:00;;;;;;;0.30;0.30;;;;;;;;;;5040941;28;20304;-65
2023/03/03 04:43:28;;;;;;;0.30;0.30;;;;;;;;;;5053640;28;20235;-65
2023/03/03 04:45:55;;;;;;;0.30;0.30;;;;;;;;;;5040147;28;20309;-65
2023/03/03 04:48:21;;;;;;;0.30;0.30;;;;;;;;;;5053943;28;20231;-65
2023/03/03 04:50:47;;;;;;;0.30;0.30;;;;;;;;;;5039258;28;20265;-65
2023/03/03 04:53:14;;;;;;;0.20;0.20;;;;;;;;;;5055116;28;20273;-65
2023/03/03 04:55:40;;;;;;;0.30;0.30;;;;;;;;;;5038187;28;20296;-75
2023/03/03 04:58:09;;;;;;;0.30;0.30;;;;;;;;;;5055670;28;20230;-65
2023/03/03 05:00:36;;;;;;;0.63;0.63;;;;;;;;;;5037181;28;20316;-66
2023/03/03 05:03:03;;;;;;;0.30;0.30;;;;;;;;;;5056447;28;20195;-65
2023/03/03 05:05:29;;;;;;;0.30;0.30;;;;;;;;;;5036213;28;20255;-65
2023/03/03 05:07:56;;;;;;;0.30;0.30;;;;;;;;;;5056339;28;20256;-65
2023/03/03 05:10:22;;;;;;;0.20;0.20;;;;;;;;;;5035500;28;20283;-65
2023/03/03 05:12:48;;;;;;;0.27;0.27;;;;;;;;;;5057937;28;20193;-65
2023/03/03 05:15:15;;;;;;;0.30;0.30;;;;;;;;;;5034502;28;20272;-66
2023/03/03 05:17:42;;;;;;;0.20;0.20;;;;;;;;;;5058657;28;20191;-65
2023/03/03 05:20:10;;;;;;;0.30;0.30;;;;;;;;;;5043985;28;20219;-65
2023/03/03 05:22:36;;;;;;;0.30;0.30;;;;;;;;;;5032482;28;20227;-65
2023/03/03 05:25:02;;;;;;;0.30;0.30;;;;;;;;;;5044129;28;20553;-65
2023/03/03 05:27:29;;;;;;;0.30;0.30;;;;;;;;;;5049007;28;20313;-66
2023/03/03 05:29:55;;;;;;;0.30;0.30;;;;;;;;;;5043991;28;20204;-65
2023/03/03 05:32:21;;;;;;;0.30;0.30;;;;;;;;;;5048951;28;20580;-65
2023/03/03 05:34:49;;;;;;;0.30;0.30;;;;;;;;;;5043806;28;20227;-65
2023/03/03 05:37:16;;;;;;;0.30;0.30;;;;;;;;;;5048984;28;20572;-66
2023/03/03 05:39:43;;;;;;;0.30;0.30;;;;;;;;;;5043905;28;20264;-65
2023/03/03 05:42:11;;;;;;;0.30;0.30;;;;;;;;;;5048515;28;20240;-65
2023/03/03 05:44:37;;;;;;;0.30;0.30;;;;;;;;;;5043796;28;20442;-65
2023/03/03 05:47:03;;;;;;;0.30;0.30;;;;;;;;;;5047829;28;20257;-65
2023/03/03 05:49:30;;;;;;;0.27;0.27;;;;;;;;;;5044361;28;20237;-66
2023/03/03 05:51:58;;;;;;;0.27;0.27;;;;;;;;;;5046777;28;20260;-65
2023/03/03 05:54:24;;;;;;;0.30;0.30;;;;;;;;;;5045072;28;20221;-65
2023/03/03 05:56:51;;;;;;;0.30;0.30;;;;;;;;;;5046048;28;20299;-65
2023/03/03 05:59:17;;;;;;;0.30;0.30;;;;;;;;;;5046022;28;20277;-65
2023/03/03 06:01:44;;;;;;;0.30;0.30;;;;;;;;;;5044719;28;20241;-65
2023/03/03 06:04:10;;;;;;;0.30;0.30;;;;;;;;;;5047395;28;20301;-65
2023/03/03 06:06:37;;;;;;;0.30;0.30;;;;;;;;;;5044236;28;20258;-65
2023/03/03 06:09:05;;;;;;;0.20;0.20;;;;;;;;;;5047856;28;20566;-65
2023/03/03 06:11:31;;;;;;;0.27;0.27;;;;;;;;;;5043347;28;20240;-65
2023/03/03 06:13:57;;;;;;;0.30;0.30;;;;;;;;;;5048170;28;20239;-65
2023/03/03 06:16:24;;;;;;;0.30;0.30;;;;;;;;;;5042412;28;20304;-65
2023/03/03 06:18:50;;;;;;;0.30;0.30;;;;;;;;;;5050978;28;20569;-65
2023/03/03 06:21:17;;;;;;;0.30;0.30;;;;;;;;;;5045607;28;20302;-65
2023/03/03 06:23:43;;;;;;;0.30;0.30;;;;;;;;;;5053955;28;20212;-65
2023/03/03 06:26:11;;;;;;;0.23;0.23;;;;;;;;;;5044623;28;20587;-65
2023/03/03 06:28:37;;;;;;;0.20;0.20;;;;;;;;;;5054932;28;20274;-65
2023/03/03 06:31:04;;;;;;;0.20;0.20;;;;;;;;;;5043606;28;20257;-65
2023/03/03 06:33:30;;;;;;;0.20;0.20;;;;;;;;;;5055575;28;20284;-65
2023/03/03 06:35:57;;;;;;;0.30;0.30;;;;;;;;;;5042768;28;20364;-65
2023/03/03 06:38:24;;;;;;;0.27;0.27;;;;;;;;;;5056201;28;20201;-65
2023/03/03 06:40:50;;;;;;;0.20;0.20;;;;;;;;;;5041823;28;20631;-66
2023/03/03 06:43:18;;;;;;;0.30;0.30;;;;;;;;;;5057187;28;20207;-65
2023/03/03 06:45:45;;;;;;;0.30;0.30;;;;;;;;;;5040923;28;20591;-65
2023/03/03 06:48:11;;;;;;;0.30;0.30;;;;;;;;;;5058057;28;20231;-65
2023/03/03 06:50:38;;;;;;;0.20;0.20;;;;;;;;;;5039914;28;20628;-65
2023/03/03 06:53:07;;;;;;;0.30;0.30;;;;;;;;;;5058419;28;20275;-65
2023/03/03 06:55:34;;;;;;;0.30;0.30;;;;;;;;;;5039760;28;20264;-65
2023/03/03 06:58:01;;;;;;;0.20;0.20;;;;;;;;;;5059055;28;20270;-65
2023/03/03 07:00:29;;;;;;;0.20;0.20;;;;;;;;;;5037820;28;20208;-69
2023/03/03 07:02:58;;;;;;;0.20;0.20;;;;;;;;;;5060219;28;20194;-65
2023/03/03 07:05:27;;;;;;;0.20;0.20;;;;;;;;;;5037929;28;20229;-65
2023/03/03 07:07:54;;;;;;;0.30;0.30;;;;;;;;;;5059549;28;20225;-65
2023/03/03 07:10:22;;;;;;;0.20;0.20;;;;;;;;;;5037354;28;20206;-65
2023/03/03 07:12:49;;;;;;;0.20;0.20;;;;;;;;;;5060379;28;20260;-65
2023/03/03 07:15:16;;;;;;;0.30;0.30;;;;;;;;;;5036346;28;20217;-65
2023/03/03 07:17:46;;;;;;;0.30;0.30;;;;;;;;;;5061233;28;20191;-65
2023/03/03 07:20:17;;;;;;;0.20;0.20;;;;;;;;;;5043319;28;20221;-66
2023/03/03 07:22:44;;;;;;;0.20;0.20;;;;;;;;;;5060974;28;20260;-65
2023/03/03 07:25:18;;;;;;;0.20;0.20;;;;;;;;;;5046124;28;20207;-65
2023/03/03 07:27:45;;;;;;;0.20;0.20;;;;;;;;;;5041120;28;20402;-65
2023/03/03 07:30:21;;;;;;;0.20;0.20;;;;;;;;;;5045209;28;20245;-65
2023/03/03 07:32:50;;;;;;;0.20;0.20;;;;;;;;;;5045505;28;20277;-65
2023/03/03 07:35:38;;;;;;;0.30;0.30;;;;;;;;;;5036987;28;20260;-67
2023/03/03 07:38:11;;;;;;;0.23;0.23;;;;;;;;;;5050923;28;20245;-67
2023/03/03 07:40:38;;;;;;;0.20;0.20;;;;;;;;;;5039394;28;20254;-66
2023/03/03 07:43:22;;;;;;;0.30;0.30;;;;;;;;;;5056929;28;20214;-66
2023/03/03 07:45:48;;;;;;;0.30;0.30;;;;;;;;;;5040848;28;20264;-66
2023/03/03 07:48:19;;;;;;;0.20;0.20;;;;;;;;;;5055667;28;20262;-66
2023/03/03 07:50:47;;;;;;;0.20;0.20;;;;;;;;;;5040607;28;20443;-68
2023/03/03 07:53:21;;;;;;;0.20;0.20;;;;;;;;;;5056046;28;20386;-83
2023/03/03 07:55:48;;;;;;;0.30;0.30;;;;;;;;;;5040713;28;20241;-73
2023/03/03 07:58:20;;;;;;;0.20;0.20;;;;;;;;;;5055729;28;20245;-66
2023/03/03 08:01:05;;;;;;;0.20;0.20;;;;;;;;;;5040368;28;20503;-66
2023/03/03 08:03:35;;;;;;;0.20;0.20;;;;;;;;;;5015181;28;20235;-66
2023/03/03 08:06:07;;;;;;;0.20;0.20;;;;;;;;;;5042420;28;20245;-66
2023/03/03 08:08:35;;;;;;;0.20;0.20;;;;;;;;;;5052844;28;20281;-65
2023/03/03 08:11:02;;;;;;;0.20;0.20;;;;;;;;;;5042097;28;20236;-63
2023/03/03 08:13:30;;;;;;;0.20;0.20;;;;;;;;;;5053443;28;20282;-65
2023/03/03 08:15:59;;;;;;;0.20;0.20;;;;;;;;;;5041140;28;20249;-63
2023/03/03 08:18:28;;;;;;;0.20;0.20;;;;;;;;;;5053838;28;20509;-63
2023/03/03 08:20:57;;;;;;;0.20;0.20;;;;;;;;;;5040612;28;20335;-66
2023/03/03 08:23:24;;;;;;;0.20;0.20;;;;;;;;;;5053333;28;20246;-68
2023/03/03 08:25:51;;;;;;;0.20;0.20;;;;;;;;;;5040206;28;20260;-66
2023/03/03 08:28:18;;;;;;;0.20;0.20;;;;;;;;;;5054559;28;20226;-69
2023/03/03 08:30:44;;;;;;;0.20;0.20;;;;;;;;;;5038883;28;20258;-67
2023/03/03 08:33:11;;;;;;;0.20;0.20;;;;;;;;;;5054782;28;20222;-68
2023/03/03 08:35:37;;;;;;;0.30;0.30;;;;;;;;;;5038466;28;20569;-68
2023/03/03 08:38:06;;;;;;;0.30;0.30;;;;;;;;;;5055771;28;20477;-69
2023/03/03 08:43:07;;;;;;;0.27;0.27;;;;;;;;;;5112048;23;20251;-73
2023/03/03 08:45:34;;;;;;;0.30;0.30;;;;;;;;;;4994249;28;20244;-72
2023/03/03 08:48:00;;;;;;;0.20;0.20;;;;;;;;;;5004118;28;20568;-74
2023/03/03 08:50:27;;;;;;;0.20;0.20;;;;;;;;;;4995216;28;20288;-73
2023/03/03 08:52:54;;;;;;;0.20;0.20;;;;;;;;;;5004252;28;20550;-72
2023/03/03 08:55:22;;;;;;;0.20;0.20;;;;;;;;;;4994973;28;20208;-72
2023/03/03 08:57:48;;;;;;;0.20;0.20;;;;;;;;;;5004101;28;20545;-73
2023/03/03 09:00:17;;;;;;;0.20;0.20;;;;;;;;;;4995209;28;20246;-73
2023/03/03 09:02:43;;;;;;;2.50;2.40;;;;;;;;;;5004039;28;20235;-74
2023/03/03 09:05:10;;;;;;;0.20;0.20;;;;;;;;;;4995089;28;20240;-73
2023/03/03 09:07:37;;;;;;;0.20;0.20;;;;;;;;;;5003621;28;20209;-72
2023/03/03 09:10:04;;;;;;;0.20;0.20;;;;;;;;;;5004853;28;20279;-75
2023/03/03 09:12:34;;;;;;;0.20;0.20;;;;;;;;;;4993767;28;20570;-73
2023/03/03 09:15:03;;;;;;;0.20;0.20;;;;;;;;;;5004759;28;20511;-70
2023/03/03 09:17:30;;;;;;;0.20;0.20;;;;;;;;;;4993617;28;20252;-70
2023/03/03 09:19:59;;;;;;;0.20;0.20;;;;;;;;;;5004383;28;20204;-71
2023/03/03 09:22:26;;;;;;;0.33;0.33;;;;;;;;;;4993632;28;20623;-70
2023/03/03 09:24:54;;;;;;;0.20;0.20;;;;;;;;;;5004373;28;20247;-70
2023/03/03 09:27:25;;;;;;;0.20;0.20;;;;;;;;;;4993590;28;20249;-70
2023/03/03 09:29:53;;;;;;;0.20;0.20;;;;;;;;;;5004233;28;20291;-71
2023/03/03 09:32:26;;;;;;;0.20;0.20;;;;;;;;;;4993351;28;20327;-71
2023/03/03 09:34:53;;;;;;;0.20;0.20;;;;;;;;;;5004452;28;20395;-74
2023/03/03 09:37:22;;;;;;;0.20;0.20;;;;;;;;;;4993388;28;20289;-70
2023/03/03 09:39:49;;;;;;;0.20;0.20;;;;;;;;;;5004477;28;20500;-68
2023/03/03 09:42:37;;;;;;;0.20;0.20;;;;;;;;;;4992867;28;20586;-69
2023/03/03 09:45:18;;;;;;;0.20;0.20;;;;;;;;;;4998008;28;20280;-71
2023/03/03 09:47:53;;;;;;;0.20;0.20;;;;;;;;;;5004187;28;20230;-73
2023/03/03 09:50:26;;;;;;;0.20;0.20;;;;;;;;;;4994174;28;20231;-69
2023/03/03 09:52:55;;;;;;;0.20;0.20;;;;;;;;;;5002248;28;20217;-69
2023/03/03 09:55:34;;;;;;;0.20;0.20;;;;;;;;;;4993901;28;20208;-71
2023/03/03 09:58:06;;;;;;;0.20;0.20;;;;;;;;;;5003016;28;20272;-72
2023/03/03 10:00:38;;;;;;;0.20;0.20;;;;;;;;;;4994129;28;20293;-71
2023/03/03 10:03:19;;;;;;;0.20;0.20;;;;;;;;;;5003382;28;20213;-72
2023/03/03 10:05:51;;;;;;;0.20;0.20;;;;;;;;;;4977339;28;20241;-71
2023/03/03 10:08:35;;;;;;;0.20;0.20;;;;;;;;;;5003071;28;20303;-72
2023/03/03 10:11:03;;;;;;;0.20;0.20;;;;;;;;;;4993375;28;20253;-73
2023/03/03 10:13:41;;;;;;;0.20;0.20;;;;;;;;;;5003472;28;20208;-72
2023/03/03 10:16:21;;;;;;;0.20;0.20;;;;;;;;;;4993353;28;20251;-73
2023/03/03 10:18:51;;;;;;;0.20;0.20;;;;;;;;;;5003706;28;20443;-73
2023/03/03 10:21:23;;;;;;;0.20;0.20;;;;;;;;;;4993496;28;20588;-72
2023/03/03 10:23:54;;;;;;;0.20;0.20;;;;;;;;;;5003353;28;20239;-73
2023/03/03 10:26:34;;;;;;;0.27;0.27;;;;;;;;;;4993164;28;20252;-74
2023/03/03 10:29:15;;;;;;;0.17;0.17;;;;;;;;;;5003615;28;20542;-74
2023/03/03 10:31:47;;;;;;;0.20;0.20;;;;;;;;;;4992928;28;20248;-74
2023/03/03 10:34:20;;;;;;;0.20;0.20;;;;;;;;;;5003885;28;20388;-74
2023/03/03 10:36:51;;;;;;;0.20;0.20;;;;;;;;;;4993020;28;20483;-74
2023/03/03 10:39:26;;;;;;;0.20;0.20;;;;;;;;;;5003492;28;20193;-73
2023/03/03 10:42:01;;;;;;;0.20;0.20;;;;;;;;;;4992616;28;20260;-75
2023/03/03 10:44:35;;;;;;;0.20;0.20;;;;;;;;;;5003877;28;20216;-74
2023/03/03 10:47:08;;;;;;;0.20;0.20;;;;;;;;;;4992745;28;20308;-74
2023/03/03 10:49:45;;;;;;;0.20;0.20;;;;;;;;;;5003837;28;20218;-72
2023/03/03 10:52:19;;;;;;;0.20;0.20;;;;;;;;;;4992645;28;20295;-72
2023/03/03 10:54:52;;;;;;;0.20;0.20;;;;;;;;;;5003532;28;20201;-72
2023/03/03 10:57:22;;;;;;;0.20;0.20;;;;;;;;;;4992589;28;20261;-72
2023/03/03 10:59:56;;;;;;;0.20;0.20;;;;;;;;;;5003624;28;20433;-72
2023/03/03 11:02:26;;;;;;;0.20;0.20;;;;;;;;;;4992646;28;20306;-70
2023/03/03 11:05:00;;;;;;;0.20;0.20;;;;;;;;;;5003684;28;20233;-70
2023/03/03 11:07:31;;;;;;;0.30;0.30;;;;;;;;;;4996081;28;20298;-70
2023/03/03 11:10:04;;;;;;;0.20;0.20;;;;;;;;;;5006708;28;20218;-71
2023/03/03 11:12:39;;;;;;;0.20;0.20;;;;;;;;;;4995907;28;20292;-72
2023/03/03 11:15:13;;;;;;;0.20;0.20;;;;;;;;;;5006919;28;20240;-72
2023/03/03 11:17:47;;;;;;;0.20;0.20;;;;;;;;;;4998286;28;20224;-72
2023/03/03 11:20:20;;;;;;;0.20;0.20;;;;;;;;;;4996672;28;20193;-71
2023/03/03 11:22:51;;;;;;;0.20;0.20;;;;;;;;;;5005901;28;20455;-72
2023/03/03 11:25:24;;;;;;;0.20;0.20;;;;;;;;;;4996790;28;20268;-72
2023/03/03 11:28:15;;;;;;;0.20;0.20;;;;;;;;;;5005836;28;20211;-71
2023/03/03 11:30:46;;;;;;;0.20;0.20;;;;;;;;;;4996159;28;20252;-71
2023/03/03 11:33:15;;;;;;;0.27;0.27;;;;;;;;;;5005725;28;20277;-71
2023/03/03 11:35:45;;;;;;;0.20;0.20;;;;;;;;;;4996042;28;20241;-74
2023/03/03 11:38:28;;;;;;;0.20;0.20;;;;;;;;;;5005739;28;20453;-75
2023/03/03 11:40:56;;;;;;;0.20;0.20;;;;;;;;;;4995948;28;20312;-73
2023/03/03 11:43:26;;;;;;;0.20;0.20;;;;;;;;;;5005844;28;20206;-73
2023/03/03 11:45:55;;;;;;;0.20;0.20;;;;;;;;;;4996095;28;20317;-73
2023/03/03 11:48:35;;;;;;;0.20;0.20;;;;;;;;;;5005788;28;20400;-74
2023/03/03 11:51:06;;;;;;;0.20;0.20;;;;;;;;;;4995541;28;20308;-74
2023/03/03 11:53:39;;;;;;;0.20;0.20;;;;;;;;;;5005800;28;20265;-73
2023/03/03 11:56:13;;;;;;;0.20;0.20;;;;;;;;;;4995553;28;20237;-74
2023/03/03 11:58:42;;;;;;;1.33;1.33;;;;;;;;;;5005525;28;20261;-74
2023/03/03 12:01:14;;;;;;;0.20;0.20;;;;;;;;;;4995339;28;20247;-74
2023/03/03 12:03:44;;;;;;;0.20;0.20;;;;;;;;;;5005081;28;20232;-75
2023/03/03 12:06:21;;;;;;;0.20;0.20;;;;;;;;;;4995116;28;20419;-74
2023/03/03 12:09:01;;;;;;;0.20;0.20;;;;;;;;;;5005558;28;20456;-74
2023/03/03 12:11:28;;;;;;;0.20;0.20;;;;;;;;;;4995272;28;20486;-73
2023/03/03 12:13:58;;;;;;;0.20;0.20;;;;;;;;;;5005254;28;20206;-73
2023/03/03 12:16:30;;;;;;;0.20;0.20;;;;;;;;;;4994612;28;20257;-73
2023/03/03 12:19:07;;;;;;;0.20;0.20;;;;;;;;;;5005453;28;20221;-74
2023/03/03 12:21:39;;;;;;;0.20;0.20;;;;;;;;;;4994973;28;20585;-73
2023/03/03 12:24:16;;;;;;;0.20;0.20;;;;;;;;;;5005220;28;20282;-74
2023/03/03 12:26:48;;;;;;;0.20;0.20;;;;;;;;;;4994578;28;20312;-73
2023/03/03 12:29:21;;;;;;;0.20;0.20;;;;;;;;;;5005467;28;20249;-73
2023/03/03 12:31:51;;;;;;;0.20;0.20;;;;;;;;;;4994634;28;20308;-75
2023/03/03 12:34:23;;;;;;;0.20;0.20;;;;;;;;;;5005213;28;20194;-73
2023/03/03 12:36:57;;;;;;;0.20;0.20;;;;;;;;;;4994334;28;20333;-73
2023/03/03 12:39:30;;;;;;;0.17;0.17;;;;;;;;;;5005405;28;20507;-74
2023/03/03 12:42:00;;;;;;;0.20;0.20;;;;;;;;;;4994212;28;20611;-74
2023/03/03 12:44:30;;;;;;;0.20;0.20;;;;;;;;;;5005309;28;20487;-73
2023/03/03 12:47:00;;;;;;;0.20;0.20;;;;;;;;;;4994254;28;20238;-74
2023/03/03 12:49:30;;;;;;;0.20;0.20;;;;;;;;;;5004852;28;20220;-72
2023/03/03 12:52:04;;;;;;;0.20;0.20;;;;;;;;;;4994113;28;20312;-72
2023/03/03 12:54:49;;;;;;;0.17;0.17;;;;;;;;;;5005190;28;20505;-75
2023/03/03 12:57:19;;;;;;;0.20;0.20;;;;;;;;;;4994017;28;20260;-69
2023/03/03 12:59:51;;;;;;;0.20;0.20;;;;;;;;;;5005076;28;20460;-72
2023/03/03 13:02:30;;;;;;;0.10;0.10;;;;;;;;;;4993820;28;20500;-68
2023/03/03 13:05:00;;;;;;;0.20;0.20;;;;;;;;;;5004974;28;20453;-73
2023/03/03 13:07:34;;;;;;;0.10;0.10;;;;;;;;;;4993641;28;20268;-74
2023/03/03 13:10:07;;;;;;;0.20;0.20;;;;;;;;;;5004874;28;20241;-71
2023/03/03 13:12:37;;;;;;;0.20;0.20;;;;;;;;;;4977479;28;20285;-76
2023/03/03 13:15:10;;;;;;;0.20;0.20;;;;;;;;;;5004718;28;20232;-75
2023/03/03 13:17:38;;;;;;;0.10;0.10;;;;;;;;;;4977387;28;20525;-75
2023/03/03 13:20:10;;;;;;;0.20;0.20;;;;;;;;;;5004519;28;20269;-74
2023/03/03 13:22:39;;;;;;;0.10;0.10;;;;;;;;;;4977269;28;20233;-75
2023/03/03 13:25:17;;;;;;;0.10;0.10;;;;;;;;;;5004491;28;20556;-75
2023/03/03 13:27:45;;;;;;;0.20;0.20;;;;;;;;;;5004074;28;20417;-75
2023/03/03 13:30:20;;;;;;;0.13;0.13;;;;;;;;;;4994398;28;20298;-75
2023/03/03 13:32:50;;;;;;;5.33;4.03;;;;;;;;;;5003412;28;20247;-74
2023/03/03 13:35:22;;;;;;;0.20;0.20;;;;;;;;;;4994429;28;20459;-73
2023/03/03 13:37:52;;;;;;;0.10;0.10;;;;;;;;;;5003381;28;20209;-73
2023/03/03 13:40:22;;;;;;;0.10;0.10;;;;;;;;;;4994225;28;20297;-74
2023/03/03 13:42:52;;;;;;;0.60;0.57;;;;;;;;;;5002915;28;20237;-73
2023/03/03 13:45:23;;;;;;;0.20;0.20;;;;;;;;;;4994367;28;20284;-73
2023/03/03 13:47:56;;;;;;;0.20;0.20;;;;;;;;;;5003344;28;20233;-73
2023/03/03 13:50:24;;;;;;;0.20;0.20;;;;;;;;;;4993977;28;20603;-73
2023/03/03 13:53:06;;;;;;;0.10;0.10;;;;;;;;;;5003188;28;20209;-71
2023/03/03 13:55:36;;;;;;;2.93;2.73;;;;;;;;;;4990729;28;20252;-70
2023/03/03 13:58:08;;;;;;;0.10;0.10;;;;;;;;;;5003223;28;20437;-70
2023/03/03 14:00:40;;;;;;;0.20;0.20;;;;;;;;;;4994109;28;20436;-70
2023/03/03 14:03:11;;;;;;;0.10;0.10;;;;;;;;;;5003362;28;20273;-70
2023/03/03 14:05:39;;;;;;;0.20;0.20;;;;;;;;;;4993891;28;20241;-70
2023/03/03 14:08:09;;;;;;;0.20;0.20;;;;;;;;;;5003306;28;20215;-70
2023/03/03 14:10:41;;;;;;;0.13;0.13;;;;;;;;;;4993646;28;20237;-70
2023/03/03 14:13:09;;;;;;;0.10;0.10;;;;;;;;;;5003332;28;20237;-71
2023/03/03 14:15:38;;;;;;;0.10;0.10;;;;;;;;;;4993783;28;20317;-70
2023/03/03 14:18:13;;;;;;;0.10;0.10;;;;;;;;;;5003248;28;20479;-70
2023/03/03 14:20:42;;;;;;;0.20;0.20;;;;;;;;;;4993922;28;20283;-70
2023/03/03 14:23:12;;;;;;;0.20;0.20;;;;;;;;;;5003362;28;20281;-71
2023/03/03 14:25:56;;;;;;;0.20;0.20;;;;;;;;;;4993773;28;20254;-70
2023/03/03 14:28:23;;;;;;;0.20;0.20;;;;;;;;;;5003489;28;20466;-70
2023/03/03 14:30:52;;;;;;;0.20;0.20;;;;;;;;;;4993380;28;20254;-69
2023/03/03 14:33:20;;;;;;;0.20;0.20;;;;;;;;;;5003388;28;20536;-69
2023/03/03 14:35:51;;;;;;;0.20;0.20;;;;;;;;;;4993451;28;20259;-71
2023/03/03 14:38:18;;;;;;;0.20;0.20;;;;;;;;;;5003009;28;20277;-69
2023/03/03 14:40:46;;;;;;;0.10;0.10;;;;;;;;;;4996603;28;20301;-70
2023/03/03 14:43:25;;;;;;;0.20;0.20;;;;;;;;;;5006405;28;20244;-69
2023/03/03 14:45:52;;;;;;;0.20;0.20;;;;;;;;;;4997345;28;20241;-71
2023/03/03 14:48:19;;;;;;;0.20;0.20;;;;;;;;;;5006638;28;20277;-70
2023/03/03 14:50:49;;;;;;;0.17;0.17;;;;;;;;;;4997160;28;20591;-70
2023/03/03 14:53:20;;;;;;;0.20;0.20;;;;;;;;;;5006676;28;20277;-69
2023/03/03 14:55:47;;;;;;;0.20;0.20;;;;;;;;;;4996990;28;20264;-69
2023/03/03 14:58:26;;;;;;;0.17;0.17;;;;;;;;;;5006328;28;20236;-71